Pagrindinis puslapis
METAR-TAF:

METAR-TAF

Oro uostai :

Bukareštas, Rumunija

platuma: 44-33N, ilguma: 026-06E, Aukštis: 95 m

Dabartinis oras

Ataskaita buvo paskelbta 17 minutes, ne 22:00 UTC
Vėjas 4 kt iš Rytų/Šiaurės Rytų
Temperatūra 10°C
Drėgmė 57%
Slėgis 1025 hPa
Matomumas 10 km arba daugiau
nėra debesų žemiau 1500 m ir nėra kamuolinių lietaus debesų

METAR: LROP 202200Z 07004KT CAVOK 10/02 Q1025 NOSIG

Laikas: 01:17 (22:17 UTC)

Prognozė

Ataskaita buvo paskelbta 5 valandos ir 17 minutes, ne 17:00 UTC
Prognozė galioja nuo 20 metu 18 UTC su 21 metu 18 UTC
Vėjas 4 kt nuo kintamojo kryptimis
Matomumas 10 km arba daugiau
nėra debesų žemiau 1500 m ir nėra kamuolinių lietaus debesų

TAF: LROP 201700Z 2018/2118 VRB04KT CAVOK

Orai ataskaitas ir orų prognozės (METAR, TAF).

turimą stotys yra geltonos ir raudonos taškus žemėlapyje.

Perkelti pele per norėdami pamatyti stoties vardą.

Tada spustelėkite, norėdami matyti oro stebėjimo ir prognozės.

Norėdami pakeisti žemėlapį: spustelėkite ant žalios mygtukų su juodo kryžiaus žemyn,; žalią mygtuką su brūkšneliu, jei norite nutolinti; arba žalių rodyklių gretimoms žemėlapius.


METAR-TAF: